Time;durP1;ratioP1;P1;durP2;ratioP2;P2;SDS_P1;SDS_P2;PMS_P1;PMS_P2;Temp;Humidity;BMP_temperature;BMP_pressure;BME280_temperature;BME280_humidity;BME280_pressure;Samples;Min_cycle;Max_cycle;Signal;HPM_P1;HPM_P2
2021/01/15 00:01:47;;;;;;;5.25;4.20;;;1.60;99.90;;;;;;5052686;28;20377;-80
2021/01/15 00:04:12;;;;;;;5.27;4.33;;;2.90;99.90;;;;;;5052832;28;20382;-77
2021/01/15 00:06:38;;;;;;;5.10;4.37;;;1.10;99.90;;;;;;5052959;28;20381;-77
2021/01/15 00:09:05;;;;;;;4.80;4.30;;;1.70;99.90;;;;;;5052138;28;20425;-78
2021/01/15 00:11:32;;;;;;;4.60;4.20;;;1.10;99.90;;;;;;5052858;28;20382;-78
2021/01/15 00:14:00;;;;;;;3.50;3.20;;;1.80;99.90;;;;;;5051995;28;20520;-78
2021/01/15 00:16:30;;;;;;;4.40;3.25;;;1.30;99.90;;;;;;5052444;28;20846;-77
2021/01/15 00:18:58;;;;;;;3.92;3.53;;;1.20;99.90;;;;;;5052102;28;20373;-78
2021/01/15 00:21:26;;;;;;;4.40;3.90;;;2.80;99.90;;;;;;5052753;28;20381;-78
2021/01/15 00:23:54;;;;;;;4.40;4.00;;;1.00;99.90;;;;;;5051910;28;20400;-80
2021/01/15 00:26:21;;;;;;;4.43;4.00;;;2.70;99.90;;;;;;5051359;28;20389;-78
2021/01/15 00:28:48;;;;;;;5.43;4.30;;;3.30;99.90;;;;;;5052621;28;20428;-77
2021/01/15 00:31:14;;;;;;;4.75;4.00;;;2.20;99.90;;;;;;5052133;28;20381;-77
2021/01/15 00:33:39;;;;;;;3.78;3.47;;;3.40;99.90;;;;;;5051147;28;20739;-78
2021/01/15 00:36:07;;;;;;;3.17;2.88;;;1.00;99.90;;;;;;5051941;28;20377;-77
2021/01/15 00:38:33;;;;;;;5.20;4.25;;;1.30;99.90;;;;;;5052385;28;20390;-77
2021/01/15 00:41:04;;;;;;;3.50;3.20;;;2.60;99.90;;;;;;5051563;28;20385;-78
2021/01/15 00:43:30;;;;;;;4.25;3.40;;;1.50;99.90;;;;;;5052424;28;20389;-77
2021/01/15 00:45:56;;;;;;;4.57;4.18;;;1.20;99.90;;;;;;5051566;28;20385;-77
2021/01/15 00:48:22;;;;;;;5.13;4.27;;;1.10;99.90;;;;;;5052003;28;20471;-77
2021/01/15 00:50:48;;;;;;;4.90;3.90;;;2.90;99.90;;;;;;5052213;28;20465;-77
2021/01/15 00:53:14;;;;;;;4.28;3.60;;;1.20;99.90;;;;;;5049800;28;20423;-77
2021/01/15 00:55:39;;;;;;;4.75;3.90;;;0.90;99.90;;;;;;5052074;28;20409;-78
2021/01/15 00:58:05;;;;;;;5.63;4.77;;;1.30;99.90;;;;;;5051209;28;20378;-78
2021/01/15 01:00:30;;;;;;;5.07;3.83;;;1.40;99.90;;;;;;5052052;28;20373;-78
2021/01/15 01:02:56;;;;;;;4.67;4.20;;;1.50;99.90;;;;;;5051017;28;20378;-79
2021/01/15 01:05:23;;;;;;;4.35;3.95;;;1.20;99.90;;;;;;5052027;28;20390;-77
2021/01/15 01:07:49;;;;;;;4.55;3.90;;;1.40;99.90;;;;;;5050364;28;20564;-78
2021/01/15 01:10:15;;;;;;;5.60;4.30;;;2.60;99.90;;;;;;5051071;28;20389;-78
2021/01/15 01:12:42;;;;;;;4.47;3.60;;;3.10;99.90;;;;;;5052017;28;20463;-79
2021/01/15 01:15:09;;;;;;;4.20;3.80;;;2.30;99.90;;;;;;5050863;28;20389;-78
2021/01/15 01:17:35;;;;;;;3.53;3.10;;;1.30;99.90;;;;;;5051286;28;20719;-79
2021/01/15 01:20:01;;;;;;;3.30;3.00;;;2.60;99.90;;;;;;5050868;28;20392;-79
2021/01/15 01:22:27;;;;;;;3.05;2.17;;;1.30;99.90;;;;;;5050317;28;20397;-79
2021/01/15 01:24:52;;;;;;;2.97;2.67;;;1.00;99.90;;;;;;5051602;28;20496;-82
2021/01/15 01:27:18;;;;;;;2.90;2.60;;;2.80;99.90;;;;;;5049667;28;20908;-79
2021/01/15 01:29:44;;;;;;;2.70;2.50;;;2.60;99.90;;;;;;5051436;28;20412;-79
2021/01/15 01:32:09;;;;;;;3.07;2.73;;;3.10;99.90;;;;;;5049286;28;20810;-80
2021/01/15 01:34:35;;;;;;;3.70;2.80;;;2.10;99.90;;;;;;5051180;28;20377;-79
2021/01/15 01:37:00;;;;;;;4.27;3.27;;;2.40;99.90;;;;;;5050274;28;20386;-80
2021/01/15 01:39:26;;;;;;;3.47;2.95;;;2.40;99.90;;;;;;5051114;28;20730;-80
2021/01/15 01:41:52;;;;;;;3.00;2.70;;;1.30;99.90;;;;;;5051155;28;20385;-81
2021/01/15 01:44:17;;;;;;;3.38;3.08;;;2.20;99.90;;;;;;5050515;28;20393;-80
2021/01/15 01:46:43;;;;;;;3.72;3.33;;;0.90;99.90;;;;;;5050875;28;20413;-80
2021/01/15 01:49:08;;;;;;;3.40;3.03;;;3.30;99.90;;;;;;5050279;28;20755;-80
2021/01/15 01:51:34;;;;;;;3.77;3.47;;;1.00;99.90;;;;;;5051195;28;20385;-80
2021/01/15 01:54:00;;;;;;;3.63;3.10;;;1.60;99.90;;;;;;5049006;28;20419;-80
2021/01/15 01:56:26;;;;;;;3.50;3.10;;;2.40;99.90;;;;;;5051404;28;20377;-80
2021/01/15 01:58:54;;;;;;;3.40;3.10;;;1.90;99.90;;;;;;5051077;28;20380;-79
2021/01/15 02:01:20;;;;;;;2.40;2.20;;;1.10;99.90;;;;;;5050398;28;20395;-80
2021/01/15 02:03:46;;;;;;;3.42;3.10;;;2.40;99.90;;;;;;5051047;28;20385;-79
2021/01/15 02:06:20;;;;;;;3.33;3.03;;;0.80;99.90;;;;;;5050338;28;20872;-80
2021/01/15 02:08:45;;;;;;;3.88;2.78;;;1.00;99.90;;;;;;5051180;28;20409;-79
2021/01/15 02:11:42;;;;;;;4.20;2.87;;;1.30;99.90;;;;;;5050186;28;20386;-79
2021/01/15 02:14:27;;;;;;;2.97;2.67;;;1.40;99.90;;;;;;5049842;28;20390;-79
2021/01/15 02:16:55;;;;;;;2.92;2.72;;;1.30;99.90;;;;;;5049716;28;20786;-78
2021/01/15 02:19:36;;;;;;;2.80;2.50;;;0.90;99.90;;;;;;5049059;28;20881;-79
2021/01/15 02:22:22;;;;;;;2.70;2.50;;;1.20;99.90;;;;;;5050029;28;20382;-79
2021/01/15 02:24:57;;;;;;;2.30;2.10;;;1.20;99.90;;;;;;5050476;28;20382;-79
2021/01/15 02:28:01;;;;;;;3.80;2.60;;;1.40;99.90;;;;;;5050270;28;20443;-79
2021/01/15 02:30:30;;;;;;;2.08;1.90;;;1.40;99.90;;;;;;5050850;28;20395;-79
2021/01/15 02:33:18;;;;;;;2.50;2.20;;;3.40;99.90;;;;;;5049984;28;20468;-82
2021/01/15 02:36:23;;;;;;;2.10;2.00;;;1.20;99.90;;;;;;5050608;28;20388;-79
2021/01/15 02:39:15;;;;;;;2.00;1.70;;;1.40;99.90;;;;;;5048789;28;20412;-79
2021/01/15 02:41:40;;;;;;;2.20;1.80;;;0.90;99.90;;;;;;5050430;28;20378;-79
2021/01/15 02:44:11;;;;;;;2.40;2.20;;;3.10;99.90;;;;;;5049431;28;20385;-78
2021/01/15 02:46:46;;;;;;;2.70;2.50;;;3.20;99.90;;;;;;5050613;28;20531;-78
2021/01/15 02:49:13;;;;;;;2.80;2.50;;;1.10;99.90;;;;;;5049105;28;20425;-79
2021/01/15 02:51:42;;;;;;;2.80;2.58;;;2.30;99.90;;;;;;5050048;28;20715;-78
2021/01/15 02:54:09;;;;;;;2.47;2.25;;;1.20;99.90;;;;;;5049412;28;20386;-78
2021/01/15 02:56:36;;;;;;;2.22;2.03;;;1.90;99.90;;;;;;5050370;28;20782;-78
2021/01/15 02:59:06;;;;;;;2.40;2.05;;;1.40;99.90;;;;;;5047888;28;20385;-79
2021/01/15 03:01:36;;;;;;;2.30;2.10;;;2.30;99.90;;;;;;5049843;28;20377;-77
2021/01/15 03:04:32;;;;;;;2.55;2.35;;;0.90;99.90;;;;;;5049344;28;20463;-79
2021/01/15 03:07:01;;;;;;;2.40;2.20;;;1.10;99.90;;;;;;5049778;28;20381;-79
2021/01/15 03:09:32;;;;;;;1.95;1.85;;;0.90;99.90;;;;;;5049767;28;20421;-77
2021/01/15 03:12:04;;;;;;;2.67;2.30;;;2.10;99.90;;;;;;5049840;28;20858;-80
2021/01/15 03:14:31;;;;;;;2.30;2.03;;;1.10;99.90;;;;;;5049893;28;20469;-77
2021/01/15 03:16:58;;;;;;;2.77;2.00;;;1.20;99.90;;;;;;5048701;28;20699;-76
2021/01/15 03:19:24;;;;;;;2.40;2.20;;;1.00;99.90;;;;;;5049394;28;20869;-76
2021/01/15 03:21:51;;;;;;;2.58;2.38;;;1.50;99.90;;;;;;5049677;28;20424;-76
2021/01/15 03:24:17;;;;;;;2.60;2.40;;;1.20;99.90;;;;;;5047754;28;20582;-76
2021/01/15 03:26:43;;;;;;;2.95;2.40;;;3.80;99.90;;;;;;5045387;28;20899;-76
2021/01/15 03:29:13;;;;;;;2.83;2.33;;;0.90;99.90;;;;;;5029078;28;20525;-77
2021/01/15 03:31:42;;;;;;;2.13;1.80;;;1.00;99.90;;;;;;5029941;28;20489;-76
2021/01/15 03:34:08;;;;;;;2.80;2.60;;;3.00;99.90;;;;;;5027863;28;20379;-76
2021/01/15 03:36:35;;;;;;;2.42;2.22;;;1.00;99.90;;;;;;5030165;28;20383;-76
2021/01/15 03:39:01;;;;;;;2.70;2.35;;;0.90;99.90;;;;;;5029519;28;20384;-79
2021/01/15 03:41:27;;;;;;;2.50;2.30;;;1.50;99.90;;;;;;5029557;28;20371;-76
2021/01/15 03:43:52;;;;;;;2.75;2.50;;;2.60;99.90;;;;;;5029631;28;20936;-77
2021/01/15 03:46:18;;;;;;;2.80;2.50;;;3.10;99.90;;;;;;5027827;28;20752;-76
2021/01/15 03:48:47;;;;;;;3.00;2.70;;;1.80;99.90;;;;;;5027932;28;20428;-77
2021/01/15 03:51:14;;;;;;;2.40;2.20;;;1.10;99.90;;;;;;5031892;28;20383;-76
2021/01/15 03:53:44;;;;;;;2.38;2.17;;;2.70;99.90;;;;;;5033384;28;20476;-76
2021/01/15 03:56:10;;;;;;;2.70;2.50;;;3.00;99.90;;;;;;5032739;28;20704;-76
2021/01/15 03:58:36;;;;;;;2.30;2.10;;;4.50;99.90;;;;;;5033301;28;20387;-76
2021/01/15 04:01:02;;;;;;;2.45;2.00;;;2.20;99.90;;;;;;5032863;28;20379;-79
2021/01/15 04:03:28;;;;;;;1.98;1.77;;;1.90;99.90;;;;;;5031558;28;20403;-76
2021/01/15 04:05:53;;;;;;;1.67;1.58;;;1.20;99.90;;;;;;5033095;28;20387;-76
2021/01/15 04:08:19;;;;;;;1.90;1.70;;;1.40;99.90;;;;;;5031995;28;20403;-76
2021/01/15 04:10:45;;;;;;;1.80;1.60;;;2.60;99.90;;;;;;5032877;28;20486;-76
2021/01/15 04:13:10;;;;;;;1.30;1.17;;;1.30;99.90;;;;;;5030791;28;20399;-76
2021/01/15 04:15:36;;;;;;;2.17;1.60;;;1.00;99.90;;;;;;5031416;28;20406;-77
2021/01/15 04:18:02;;;;;;;1.02;1.02;;;3.70;99.90;;;;;;5031204;28;20394;-79
2021/01/15 04:20:27;;;;;;;1.45;1.10;;;1.30;99.90;;;;;;5031929;28;20391;-77
2021/01/15 04:22:53;;;;;;;1.43;1.33;;;1.30;99.90;;;;;;5032505;28;20375;-77
2021/01/15 04:25:19;;;;;;;1.90;1.30;;;2.80;99.90;;;;;;5031775;28;20391;-78
2021/01/15 04:27:44;;;;;;;1.73;1.45;;;3.30;99.90;;;;;;5046201;28;20405;-78
2021/01/15 04:30:12;;;;;;;1.55;1.20;;;1.30;99.90;;;;;;5052281;28;20382;-78
2021/01/15 04:32:47;;;;;;;2.38;1.27;;;1.40;99.90;;;;;;5053156;28;20401;-77
2021/01/15 04:35:18;;;;;;;2.60;1.48;;;1.60;99.90;;;;;;5052191;28;20385;-77
2021/01/15 04:37:44;;;;;;;1.80;1.50;;;1.40;99.90;;;;;;5053111;28;20730;-78
2021/01/15 04:40:11;;;;;;;1.30;1.20;;;1.00;99.90;;;;;;5051641;28;20461;-78
2021/01/15 04:42:42;;;;;;;1.30;1.17;;;1.30;99.90;;;;;;5052313;28;20397;-78
2021/01/15 04:45:13;;;;;;;1.50;1.10;;;2.50;99.90;;;;;;5052072;28;20390;-78
2021/01/15 04:47:46;;;;;;;1.50;1.40;;;1.50;99.90;;;;;;5055443;28;20420;-78
2021/01/15 04:50:14;;;;;;;1.50;1.33;;;3.50;99.90;;;;;;5051773;28;20750;-77
2021/01/15 04:52:51;;;;;;;1.60;1.50;;;1.60;99.90;;;;;;5052706;28;20381;-77
2021/01/15 04:55:23;;;;;;;2.00;1.80;;;2.70;99.90;;;;;;5051854;28;20434;-77
2021/01/15 04:57:53;;;;;;;2.90;1.70;;;1.30;99.90;;;;;;5052870;28;20460;-77
2021/01/15 05:00:21;;;;;;;2.08;1.70;;;1.50;99.90;;;;;;5051517;28;20389;-78
2021/01/15 05:02:47;;;;;;;1.90;1.40;;;1.20;99.90;;;;;;5052140;28;20478;-77
2021/01/15 05:05:22;;;;;;;3.17;1.67;;;1.50;99.90;;;;;;5051191;28;20417;-78
2021/01/15 05:08:09;;;;;;;2.30;1.70;;;1.40;99.90;;;;;;5049106;28;20391;-77
2021/01/15 05:10:46;;;;;;;1.33;1.23;;;1.40;99.90;;;;;;5051763;28;20381;-77
2021/01/15 05:13:14;;;;;;;3.20;1.80;;;1.20;99.90;;;;;;5051302;28;20393;-79
2021/01/15 05:15:44;;;;;;;2.30;1.60;;;3.40;99.90;;;;;;5051674;28;20468;-79
2021/01/15 05:18:10;;;;;;;2.63;1.60;;;1.40;99.90;;;;;;5050670;28;20749;-79
2021/01/15 05:20:36;;;;;;;2.40;2.00;;;1.30;99.90;;;;;;5051457;28;20373;-78
2021/01/15 05:23:07;;;;;;;1.90;1.70;;;1.20;99.90;;;;;;5051880;28;20846;-78
2021/01/15 05:25:42;;;;;;;1.80;1.60;;;1.30;99.90;;;;;;5050848;28;20389;-78
2021/01/15 05:28:09;;;;;;;1.90;1.70;;;3.30;99.90;;;;;;5049886;28;20414;-82
2021/01/15 05:30:38;;;;;;;1.88;1.60;;;2.50;99.90;;;;;;5051750;28;20397;-78
2021/01/15 05:33:10;;;;;;;3.40;2.10;;;1.00;99.90;;;;;;5052207;28;20389;-79
2021/01/15 05:35:47;;;;;;;1.70;1.40;;;1.30;99.90;;;;;;5051945;28;20781;-79
2021/01/15 05:38:15;;;;;;;2.60;1.90;;;1.30;99.90;;;;;;5050944;28;20865;-79
2021/01/15 05:40:50;;;;;;;2.08;1.40;;;1.00;99.90;;;;;;5051713;28;20385;-79
2021/01/15 05:43:24;;;;;;;1.38;1.27;;;1.40;99.90;;;;;;5050633;28;20397;-79
2021/01/15 05:46:13;;;;;;;1.30;1.20;;;3.10;99.90;;;;;;5051123;28;20421;-79
2021/01/15 05:48:44;;;;;;;1.50;1.40;;;1.20;99.90;;;;;;5051361;28;20520;-78
2021/01/15 05:51:26;;;;;;;2.00;1.60;;;3.60;99.90;;;;;;5052255;28;20464;-81
2021/01/15 05:53:52;;;;;;;3.10;1.50;;;1.20;99.90;;;;;;5051799;28;20408;-78
2021/01/15 05:56:19;;;;;;;1.35;1.25;;;1.40;99.90;;;;;;5050650;28;20378;-78
2021/01/15 05:59:10;;;;;;;1.30;1.20;;;1.20;99.90;;;;;;5051479;28;20503;-78
2021/01/15 06:02:05;;;;;;;1.50;1.40;;;1.50;99.90;;;;;;5051465;28;20385;-78
2021/01/15 06:04:31;;;;;;;1.70;1.30;;;1.20;99.90;;;;;;5046112;28;21243;-78
2021/01/15 06:06:58;;;;;;;3.70;1.60;;;2.10;99.90;;;;;;5050563;28;20460;-79
2021/01/15 06:09:24;;;;;;;2.15;1.70;;;2.60;99.90;;;;;;5048688;28;20410;-79
2021/01/15 06:11:52;;;;;;;2.55;1.58;;;0.70;99.90;;;;;;5050917;28;20716;-78
2021/01/15 06:14:27;;;;;;;2.05;1.80;;;2.40;99.90;;;;;;5048722;28;20527;-79
2021/01/15 06:17:06;;;;;;;3.05;2.05;;;1.20;99.90;;;;;;5050865;28;20783;-79
2021/01/15 06:19:51;;;;;;;2.10;1.90;;;1.20;99.90;;;;;;5049094;28;20393;-79
2021/01/15 06:22:54;;;;;;;3.05;2.20;;;1.40;99.90;;;;;;5067872;28;20383;-77
2021/01/15 06:25:54;;;;;;;2.20;2.00;;;1.40;99.90;;;;;;5069777;28;20942;-78
2021/01/15 06:28:24;;;;;;;2.88;1.75;;;1.60;99.90;;;;;;5050658;28;20955;-79
2021/01/15 06:31:02;;;;;;;3.78;1.90;;;2.40;99.90;;;;;;5050398;28;20750;-78
2021/01/15 06:33:36;;;;;;;1.92;1.73;;;2.30;99.90;;;;;;5048734;28;20931;-78
2021/01/15 06:37:04;;;;;;;4.03;2.38;;;1.30;99.90;;;;;;5051146;28;20389;-78
2021/01/15 06:39:29;;;;;;;3.50;2.40;;;1.40;99.90;;;;;;5026597;28;20408;-79
2021/01/15 06:42:02;;;;;;;3.00;2.20;;;1.20;99.90;;;;;;5050513;28;20393;-80
2021/01/15 06:44:27;;;;;;;3.13;2.40;;;2.20;99.90;;;;;;5050025;28;20855;-80
2021/01/15 06:46:54;;;;;;;2.30;2.03;;;1.20;99.90;;;;;;5050638;28;20460;-80
2021/01/15 06:49:29;;;;;;;3.00;2.20;;;2.90;99.90;;;;;;5049409;28;20433;-80
2021/01/15 06:51:57;;;;;;;3.08;2.30;;;1.80;99.90;;;;;;5050626;28;20412;-80
2021/01/15 06:54:35;;;;;;;2.78;2.50;;;3.00;99.90;;;;;;5049346;28;20385;-80
2021/01/15 06:57:10;;;;;;;2.40;2.03;;;0.80;99.90;;;;;;5049940;28;20377;-80
2021/01/15 06:59:38;;;;;;;3.50;2.00;;;1.30;99.90;;;;;;5049527;28;20385;-81
2021/01/15 07:02:12;;;;;;;2.90;2.60;;;1.60;99.90;;;;;;5048236;28;20389;-81
2021/01/15 07:05:00;;;;;;;3.20;2.90;;;1.40;99.90;;;;;;5049416;28;20396;-81
2021/01/15 07:07:28;;;;;;;2.80;2.50;;;1.60;99.90;;;;;;5049549;28;20473;-81
2021/01/15 07:09:54;;;;;;;4.20;2.55;;;3.50;99.90;;;;;;5050308;28;20464;-81
2021/01/15 07:12:22;;;;;;;3.13;2.70;;;3.40;99.90;;;;;;5049157;28;20389;-82
2021/01/15 07:15:12;;;;;;;2.90;2.55;;;1.00;99.90;;;;;;5050448;28;20392;-81
2021/01/15 07:17:47;;;;;;;2.75;2.55;;;1.20;99.90;;;;;;5047462;28;20435;-81
2021/01/15 07:20:18;;;;;;;3.00;2.72;;;1.50;99.90;;;;;;5049368;28;20874;-83
2021/01/15 07:22:59;;;;;;;3.28;2.70;;;1.10;99.90;;;;;;5050794;28;20393;-81
2021/01/15 07:25:25;;;;;;;5.40;3.60;;;1.10;99.90;;;;;;5053179;28;20377;-82
2021/01/15 07:27:51;;;;;;;3.90;2.35;;;3.20;99.90;;;;;;5054491;28;20447;-80
2021/01/15 07:30:25;;;;;;;2.63;2.30;;;1.20;99.90;;;;;;5050243;28;20377;-84
2021/01/15 07:32:53;;;;;;;3.03;2.72;;;1.70;99.90;;;;;;5040014;28;21412;-83
2021/01/15 07:35:20;;;;;;;3.33;2.40;;;1.00;99.90;;;;;;5043204;28;20464;-83
2021/01/15 07:37:47;;;;;;;2.65;2.45;;;1.00;99.90;;;;;;5043287;28;20862;-81
2021/01/15 07:40:17;;;;;;;2.42;2.10;;;3.00;99.90;;;;;;5041623;28;20380;-84
2021/01/15 07:42:48;;;;;;;3.83;2.87;;;1.20;99.90;;;;;;5043976;28;20885;-83
2021/01/15 07:45:23;;;;;;;2.70;2.50;;;1.10;99.90;;;;;;5044601;28;20385;-84
2021/01/15 07:47:54;;;;;;;3.60;2.72;;;1.20;99.90;;;;;;5042329;28;21115;-82
2021/01/15 07:50:34;;;;;;;3.67;2.83;;;1.40;99.90;;;;;;5041370;28;20397;-84
2021/01/15 07:53:11;;;;;;;6.15;3.35;;;3.00;99.90;;;;;;5043299;28;20412;-81
2021/01/15 07:55:57;;;;;;;2.95;2.65;;;1.60;99.90;;;;;;5039730;28;20405;-80
2021/01/15 07:58:25;;;;;;;4.90;2.55;;;2.20;99.90;;;;;;5039857;28;20405;-80
2021/01/15 08:00:52;;;;;;;4.68;2.58;;;1.80;99.90;;;;;;5039614;28;20397;-80
2021/01/15 08:03:18;;;;;;;3.60;2.88;;;2.90;99.90;;;;;;5041937;28;20390;-82
2021/01/15 08:05:45;;;;;;;2.75;2.50;;;1.40;99.90;;;;;;5041868;28;20412;-80
2021/01/15 08:08:16;;;;;;;2.97;2.30;;;1.50;99.90;;;;;;5039660;28;20417;-80
2021/01/15 08:10:45;;;;;;;2.63;2.30;;;1.70;99.90;;;;;;5040918;28;20424;-81
2021/01/15 08:13:36;;;;;;;4.13;3.00;;;2.30;99.90;;;;;;5042799;28;20389;-80
2021/01/15 08:16:08;;;;;;;2.60;2.40;;;2.80;99.90;;;;;;5041572;28;20448;-79
2021/01/15 08:18:34;;;;;;;3.30;2.70;;;1.20;99.90;;;;;;5040538;28;20457;-79
2021/01/15 08:21:00;;;;;;;3.17;2.47;;;;;;;;;;5041047;28;20520;-80
2021/01/15 08:23:28;;;;;;;3.15;2.00;;;1.60;99.90;;;;;;5042035;28;20366;-81
2021/01/15 08:26:24;;;;;;;2.75;2.30;;;1.70;99.90;;;;;;5039553;28;20404;-81
2021/01/15 08:28:50;;;;;;;1.80;1.70;;;1.90;99.90;;;;;;5039846;28;20562;-81
2021/01/15 08:31:21;;;;;;;2.72;2.33;;;1.60;99.90;;;;;;5039563;28;21200;-82
2021/01/15 08:33:47;;;;;;;4.22;3.10;;;1.70;99.90;;;;;;5043588;28;20453;-81
2021/01/15 08:36:14;;;;;;;3.10;2.60;;;1.50;99.90;;;;;;5037930;28;20393;-81
2021/01/15 08:38:40;;;;;;;3.03;2.70;;;3.20;99.90;;;;;;5042028;28;20393;-81
2021/01/15 08:41:26;;;;;;;3.20;2.58;;;1.50;99.90;;;;;;5039681;28;20443;-82
2021/01/15 08:43:55;;;;;;;2.60;2.40;;;1.80;99.90;;;;;;5041554;28;20405;-79
2021/01/15 08:46:22;;;;;;;2.70;2.50;;;1.60;99.90;;;;;;5040358;28;20389;-81
2021/01/15 08:48:49;;;;;;;2.67;2.45;;;1.40;99.90;;;;;;5042057;28;20421;-81
2021/01/15 08:51:21;;;;;;;2.70;2.50;;;1.60;99.90;;;;;;5037990;28;21221;-82
2021/01/15 08:54:13;;;;;;;5.37;2.87;;;1.90;99.90;;;;;;5038724;28;20393;-81
2021/01/15 08:56:41;;;;;;;2.63;2.03;;;1.90;99.90;;;;;;5037606;28;20426;-82
2021/01/15 08:59:12;;;;;;;3.55;3.00;;;1.60;99.90;;;;;;5040816;28;20754;-81
2021/01/15 09:01:39;;;;;;;3.00;2.45;;;1.60;99.90;;;;;;5038325;28;20369;-81
2021/01/15 09:04:10;;;;;;;3.03;2.63;;;1.80;99.90;;;;;;5039411;28;20476;-81
2021/01/15 09:06:38;;;;;;;3.70;2.83;;;4.00;99.90;;;;;;5041532;28;21002;-83
2021/01/15 09:09:09;;;;;;;2.50;2.30;;;2.30;99.90;;;;;;5041539;28;20413;-79
2021/01/15 09:11:41;;;;;;;2.40;2.17;;;1.90;99.90;;;;;;5036780;28;20872;-79
2021/01/15 09:14:12;;;;;;;2.70;2.33;;;2.00;99.90;;;;;;5041012;28;20393;-79
2021/01/15 09:16:39;;;;;;;2.27;1.97;;;2.20;99.90;;;;;;5040848;28;20418;-80
2021/01/15 09:19:07;;;;;;;3.80;2.60;;;1.90;99.90;;;;;;5039282;28;20401;-80
2021/01/15 09:21:44;;;;;;;2.87;2.57;;;2.10;99.90;;;;;;5038202;28;20467;-81
2021/01/15 09:24:10;;;;;;;3.33;2.60;;;1.90;99.90;;;;;;5044832;28;20600;-81
2021/01/15 09:26:36;;;;;;;2.92;2.63;;;1.90;99.90;;;;;;5042103;28;20390;-78
2021/01/15 09:29:01;;;;;;;2.60;2.40;;;1.70;99.90;;;;;;5040548;28;20409;-82
2021/01/15 09:31:27;;;;;;;2.78;2.58;;;1.90;99.90;;;;;;5037875;28;20402;-80
2021/01/15 09:33:53;;;;;;;2.67;2.33;;;2.00;99.90;;;;;;5040056;28;20385;-80
2021/01/15 09:36:28;;;;;;;3.30;2.40;;;2.00;99.90;;;;;;5034897;28;20424;-83
2021/01/15 09:38:55;;;;;;;2.50;2.15;;;2.50;99.90;;;;;;5039969;28;20846;-80
2021/01/15 09:41:22;;;;;;;3.40;2.40;;;1.90;99.90;;;;;;5035384;28;20392;-83
2021/01/15 09:43:55;;;;;;;2.83;2.25;;;2.70;99.90;;;;;;5037610;28;20408;-82
2021/01/15 09:46:24;;;;;;;2.60;2.17;;;2.00;99.90;;;;;;5038777;28;20386;-79
2021/01/15 09:48:51;;;;;;;2.80;2.10;;;2.20;99.90;;;;;;5038816;28;20413;-81
2021/01/15 09:51:19;;;;;;;4.47;2.40;;;2.60;99.90;;;;;;5038227;28;21086;-80
2021/01/15 09:53:45;;;;;;;2.00;1.80;;;1.80;99.90;;;;;;5038330;28;20483;-80
2021/01/15 09:56:30;;;;;;;2.80;2.10;;;2.10;99.90;;;;;;5039551;28;20423;-79
2021/01/15 09:58:57;;;;;;;1.92;1.73;;;2.00;99.90;;;;;;5040728;28;20389;-79
2021/01/15 10:01:25;;;;;;;2.45;2.05;;;1.90;99.90;;;;;;5038194;28;20425;-81
2021/01/15 10:03:52;;;;;;;2.08;1.80;;;2.20;99.90;;;;;;5040084;28;20393;-83
2021/01/15 10:06:19;;;;;;;1.90;1.80;;;2.20;99.90;;;;;;5039668;28;20423;-82
2021/01/15 10:08:46;;;;;;;2.00;1.80;;;1.30;99.90;;;;;;5035258;28;20421;-80
2021/01/15 10:11:30;;;;;;;2.10;1.90;;;2.10;99.90;;;;;;5037645;28;20746;-80
2021/01/15 10:14:02;;;;;;;2.10;1.90;;;2.00;99.90;;;;;;5039766;28;20538;-81
2021/01/15 10:16:28;;;;;;;2.00;1.80;;;2.30;99.90;;;;;;5037365;28;20404;-80
2021/01/15 10:18:55;;;;;;;2.40;1.73;;;2.10;99.90;;;;;;5037593;28;20437;-80
2021/01/15 10:21:23;;;;;;;1.80;1.40;;;2.20;99.90;;;;;;5036939;28;20397;-82
2021/01/15 10:23:49;;;;;;;2.08;1.70;;;2.70;99.90;;;;;;5042609;28;20797;-79
2021/01/15 10:26:22;;;;;;;1.50;1.40;;;2.80;99.90;;;;;;5037541;28;20388;-83
2021/01/15 10:28:49;;;;;;;2.03;1.65;;;2.90;99.90;;;;;;5040563;28;20466;-82
2021/01/15 10:31:15;;;;;;;1.30;1.20;;;2.90;99.90;;;;;;5037591;28;20451;-81
2021/01/15 10:33:41;;;;;;;1.60;1.50;;;2.80;99.90;;;;;;5036764;28;20866;-78
2021/01/15 10:36:08;;;;;;;2.15;1.45;;;3.00;99.90;;;;;;5039591;28;21079;-80
2021/01/15 10:38:34;;;;;;;1.60;1.50;;;3.10;99.90;;;;;;5039173;28;20389;-80
2021/01/15 10:41:00;;;;;;;2.30;1.60;;;2.40;99.90;;;;;;5034523;28;20385;-79
2021/01/15 10:43:26;;;;;;;2.28;1.70;;;2.60;99.90;;;;;;5038536;28;20397;-79
2021/01/15 10:45:54;;;;;;;1.60;1.50;;;3.10;99.90;;;;;;5038212;28;20444;-76
2021/01/15 10:48:20;;;;;;;1.88;1.60;;;2.60;99.90;;;;;;5036495;28;20515;-79
2021/01/15 10:50:45;;;;;;;2.63;1.80;;;3.00;99.90;;;;;;5036687;28;20477;-80
2021/01/15 10:53:11;;;;;;;3.60;2.30;;;4.60;99.90;;;;;;5038900;28;20382;-77
2021/01/15 10:55:37;;;;;;;2.35;2.15;;;3.50;99.90;;;;;;5036006;28;20404;-80
2021/01/15 10:58:02;;;;;;;4.22;2.15;;;2.90;99.90;;;;;;5039833;28;20382;-79
2021/01/15 11:00:29;;;;;;;2.42;2.22;;;2.70;99.90;;;;;;5044125;28;20390;-78
2021/01/15 11:02:55;;;;;;;2.13;1.80;;;3.10;99.90;;;;;;5040581;28;21185;-80
2021/01/15 11:05:21;;;;;;;2.47;1.70;;;2.70;99.90;;;;;;5042825;28;20385;-81
2021/01/15 11:07:47;;;;;;;1.80;1.70;;;2.60;99.90;;;;;;5045397;28;20794;-79
2021/01/15 11:10:13;;;;;;;2.58;1.90;;;2.90;99.90;;;;;;5039553;28;20425;-78
2021/01/15 11:12:40;;;;;;;2.13;1.92;;;3.30;99.90;;;;;;5042311;28;20397;-80
2021/01/15 11:15:07;;;;;;;2.22;2.10;;;4.60;99.90;;;;;;5042922;28;20424;-77
2021/01/15 11:17:36;;;;;;;2.22;2.03;;;3.60;99.90;;;;;;5040751;28;21234;-78
2021/01/15 11:20:04;;;;;;;2.30;1.90;;;2.90;99.90;;;;;;5040219;28;20389;-78
2021/01/15 11:22:30;;;;;;;2.50;1.90;;;3.30;99.90;;;;;;5045367;28;20386;-79
2021/01/15 11:24:55;;;;;;;2.17;1.70;;;2.60;99.90;;;;;;5040209;28;21081;-79
2021/01/15 11:27:21;;;;;;;2.20;2.00;;;2.50;99.90;;;;;;5043620;28;20393;-80
2021/01/15 11:29:47;;;;;;;2.40;2.20;;;4.40;99.90;;;;;;5040760;28;20590;-76
2021/01/15 11:32:13;;;;;;;2.23;2.00;;;2.80;99.90;;;;;;5040323;28;20419;-77
2021/01/15 11:34:38;;;;;;;2.40;2.20;;;2.50;99.90;;;;;;5041586;28;20666;-79
2021/01/15 11:37:04;;;;;;;2.60;2.30;;;2.00;99.90;;;;;;5042970;28;20417;-77
2021/01/15 11:39:30;;;;;;;3.50;3.03;;;3.10;99.90;;;;;;5038907;28;20446;-79
2021/01/15 11:41:55;;;;;;;3.40;2.43;;;3.80;99.90;;;;;;5041033;28;20413;-78
2021/01/15 11:44:21;;;;;;;4.30;3.00;;;2.50;99.90;;;;;;5039927;28;20477;-78
2021/01/15 11:46:47;;;;;;;2.23;2.03;;;2.70;99.90;;;;;;5040436;28;21209;-78
2021/01/15 11:49:13;;;;;;;2.07;1.87;;;3.20;99.90;;;;;;5042754;28;20487;-78
2021/01/15 11:51:39;;;;;;;2.60;2.00;;;2.70;99.90;;;;;;5040362;28;21215;-77
2021/01/15 11:54:12;;;;;;;2.30;2.10;;;2.80;99.90;;;;;;5040456;28;20400;-79
2021/01/15 11:56:40;;;;;;;2.33;2.00;;;2.60;99.90;;;;;;5041015;28;20499;-79
2021/01/15 11:59:06;;;;;;;2.58;2.30;;;2.50;99.90;;;;;;5043078;28;20389;-78
2021/01/15 12:01:31;;;;;;;4.20;2.58;;;2.80;99.90;;;;;;5038079;28;20382;-78
2021/01/15 12:03:57;;;;;;;3.40;2.58;;;2.50;99.90;;;;;;5043504;28;20399;-79
2021/01/15 12:06:23;;;;;;;3.25;1.92;;;2.10;99.90;;;;;;5040131;28;20385;-80
2021/01/15 12:08:48;;;;;;;3.03;2.70;;;2.50;99.90;;;;;;5039996;28;20475;-80
2021/01/15 12:11:14;;;;;;;4.13;3.60;;;3.20;99.90;;;;;;5039660;28;21269;-80
2021/01/15 12:13:40;;;;;;;5.13;3.80;;;2.30;99.90;;;;;;5041249;28;20498;-77
2021/01/15 12:16:05;;;;;;;4.60;3.80;;;2.50;99.90;;;;;;5040413;28;20433;-78
2021/01/15 12:18:31;;;;;;;4.68;4.10;;;2.10;99.90;;;;;;5041646;28;20390;-80
2021/01/15 12:20:57;;;;;;;5.90;3.90;;;3.80;99.90;;;;;;5040296;28;20408;-79
2021/01/15 12:23:23;;;;;;;4.80;3.80;;;1.70;99.90;;;;;;5038665;28;20500;-80
2021/01/15 12:25:49;;;;;;;5.05;3.80;;;2.10;99.90;;;;;;5044186;28;20416;-80
2021/01/15 12:28:16;;;;;;;3.75;3.35;;;4.00;99.90;;;;;;5042490;28;20906;-81
2021/01/15 12:30:46;;;;;;;3.92;3.33;;;3.50;99.90;;;;;;5037667;28;20509;-79
2021/01/15 12:33:16;;;;;;;4.28;3.45;;;2.20;99.90;;;;;;5038840;28;20504;-80
2021/01/15 12:35:44;;;;;;;5.95;3.83;;;2.40;99.90;;;;;;5040239;28;20521;-80
2021/01/15 12:38:18;;;;;;;6.80;4.00;;;3.20;99.90;;;;;;5039568;28;20389;-78
2021/01/15 12:40:45;;;;;;;4.85;4.15;;;2.50;99.90;;;;;;5038874;28;20516;-77
2021/01/15 12:43:11;;;;;;;4.47;3.90;;;2.30;99.90;;;;;;5041344;28;20393;-78
2021/01/15 12:45:45;;;;;;;5.85;4.45;;;3.10;99.90;;;;;;5037377;28;20385;-81
2021/01/15 12:48:12;;;;;;;5.18;4.32;;;3.10;99.90;;;;;;5039843;28;20420;-79
2021/01/15 12:50:39;;;;;;;5.57;4.18;;;2.50;99.90;;;;;;5040579;28;20392;-80
2021/01/15 12:53:05;;;;;;;5.15;3.90;;;1.70;99.90;;;;;;5040701;28;20400;-78
2021/01/15 12:55:31;;;;;;;5.18;4.13;;;2.50;99.90;;;;;;5039120;28;20389;-79
2021/01/15 12:57:59;;;;;;;5.68;4.90;;;2.40;99.90;;;;;;5043814;28;20466;-79
2021/01/15 13:00:25;;;;;;;5.45;4.53;;;1.80;99.90;;;;;;5037755;28;20382;-79
2021/01/15 13:02:51;;;;;;;4.25;3.85;;;2.10;99.90;;;;;;5039999;28;20390;-79
2021/01/15 13:05:17;;;;;;;6.10;4.80;;;1.90;99.90;;;;;;5036978;28;20408;-81
2021/01/15 13:07:43;;;;;;;6.50;5.38;;;1.70;99.90;;;;;;5039398;28;20393;-78
2021/01/15 13:10:10;;;;;;;5.97;4.60;;;1.60;99.90;;;;;;5038610;28;20418;-79
2021/01/15 13:12:37;;;;;;;4.75;4.13;;;1.90;99.90;;;;;;5040913;28;20401;-79